Time;durP1;ratioP1;P1;durP2;ratioP2;P2;SDS_P1;SDS_P2;PMS_P1;PMS_P2;Temp;Humidity;BMP_temperature;BMP_pressure;BME280_temperature;BME280_humidity;BME280_pressure;Samples;Min_cycle;Max_cycle;Signal;HPM_P1;HPM_P2
2023/11/04 00:00:16;;;;;;;;;2.00;2.00;;;;;14.59;100.00;98400.28;2062720;28;45626;-60
2023/11/04 00:01:17;;;;;;;;;4.50;4.50;;;;;14.59;100.00;98411.81;2062535;28;46733;-57
2023/11/04 00:02:17;;;;;;;;;3.67;3.33;;;;;14.59;100.00;98402.94;2062237;28;46280;-55
2023/11/04 00:03:18;;;;;;;;;3.00;3.00;;;;;14.58;100.00;98399.44;2062284;28;46797;-58
2023/11/04 00:04:19;;;;;;;;;6.00;3.33;;;;;14.58;100.00;98399.44;2063327;28;46188;-59
2023/11/04 00:05:19;;;;;;;;;4.00;4.00;;;;;14.57;100.00;98396.88;2063038;28;46458;-58
2023/11/04 00:06:19;;;;;;;;;4.00;3.00;;;;;14.58;100.00;98391.41;2062765;28;46761;-57
2023/11/04 00:07:20;;;;;;;;;4.67;4.00;;;;;14.58;100.00;98395.91;2063140;28;46389;-55
2023/11/04 00:08:20;;;;;;;;;5.00;5.00;;;;;14.58;100.00;98388.75;2062509;28;46298;-59
2023/11/04 00:09:20;;;;;;;;;4.67;3.33;;;;;14.57;100.00;98384.38;2054064;28;46805;-54
2023/11/04 00:10:21;;;;;;;;;5.00;5.00;;;;;14.58;100.00;98390.56;2062475;28;46839;-56
2023/11/04 00:11:22;;;;;;;;;5.67;4.67;;;;;14.59;100.00;98387.78;2059153;28;45502;-57
2023/11/04 00:12:22;;;;;;;;;6.00;4.33;;;;;14.61;100.00;98385.00;2062455;28;46497;-56
2023/11/04 00:13:23;;;;;;;;;3.00;3.00;;;;;14.59;100.00;98379.78;2062748;28;46160;-58
2023/11/04 00:14:23;;;;;;;;;4.00;4.00;;;;;14.61;100.00;98382.31;2062747;28;46300;-58
2023/11/04 00:15:24;;;;;;;;;4.67;4.67;;;;;14.61;100.00;98385.88;2062288;28;46890;-57
2023/11/04 00:16:24;;;;;;;;;5.67;4.67;;;;;14.61;100.00;98382.31;2054333;28;46067;-53
2023/11/04 00:17:24;;;;;;;;;5.00;4.00;;;;;14.60;100.00;98377.97;2062614;28;48486;-59
2023/11/04 00:18:27;;;;;;;;;5.33;4.33;;;;;14.61;100.00;98380.53;2062635;28;46344;-59
2023/11/04 00:19:27;;;;;;;;;3.00;3.00;;;;;14.62;100.00;98379.56;2070447;28;46346;-51
2023/11/04 00:20:27;;;;;;;;;6.67;6.00;;;;;14.60;100.00;98372.63;2070263;28;46598;-56
2023/11/04 00:21:27;;;;;;;;;5.33;4.00;;;;;14.59;100.00;98374.44;2054813;28;46683;-57
2023/11/04 00:22:29;;;;;;;;;5.00;2.33;;;;;14.61;100.00;98377.00;2054949;28;45273;-55
2023/11/04 00:23:30;;;;;;;;;3.00;3.00;;;;;14.58;100.00;98364.72;2054995;28;46429;-54
2023/11/04 00:24:30;;;;;;;;;6.00;4.00;;;;;14.59;100.00;98369.09;2060381;28;46932;-54
2023/11/04 00:25:30;;;;;;;;;8.67;4.67;;;;;14.59;100.00;98370.91;2062958;28;46428;-57
2023/11/04 00:26:31;;;;;;;;;3.67;3.67;;;;;14.59;100.00;98369.09;2062459;28;46160;-57
2023/11/04 00:27:31;;;;;;;;;4.00;4.00;;;;;14.59;100.00;98365.59;2062890;28;46433;-57
2023/11/04 00:28:31;;;;;;;;;7.33;5.00;;;;;14.59;100.00;98374.44;2062781;28;46314;-58
2023/11/04 00:29:32;;;;;;;;;4.67;4.00;;;;;14.60;100.00;98375.28;2063593;28;46715;-58
2023/11/04 00:30:32;;;;;;;;;4.33;4.00;;;;;14.60;100.00;98375.28;2063089;28;45892;-59
2023/11/04 00:31:35;;;;;;;;;5.33;5.00;;;;;14.58;100.00;98370.06;2063089;28;46664;-56
2023/11/04 00:32:35;;;;;;;;;5.00;5.00;;;;;14.59;100.00;98368.25;2062836;28;45985;-55
2023/11/04 00:33:39;;;;;;;;;4.00;4.00;;;;;14.59;100.00;98374.44;2062663;28;46538;-54
2023/11/04 00:34:39;;;;;;;;;3.25;2.75;;;;;14.58;100.00;98363.88;2062760;28;46550;-57
2023/11/04 00:35:39;;;;;;;;;6.67;6.00;;;;;14.59;100.00;98370.91;2062181;28;46190;-58
2023/11/04 00:36:40;;;;;;;;;4.00;4.00;;;;;14.51;100.00;98365.31;2054375;28;46263;-60
2023/11/04 00:37:40;;;;;;;;;9.00;5.67;;;;;14.55;100.00;98364.97;2046453;28;46857;-57
2023/11/04 00:38:40;;;;;;;;;4.67;4.00;;;;;14.60;100.00;98367.28;2064252;28;46635;-57
2023/11/04 00:39:41;;;;;;;;;3.33;3.33;;;;;14.62;100.00;98354.69;2078303;28;46912;-57
2023/11/04 00:40:44;;;;;;;;;5.00;4.00;;;;;14.61;100.00;98359.19;2062916;28;46467;-57
2023/11/04 00:41:44;;;;;;;;;6.00;5.25;;;;;14.62;100.00;98352.88;2062818;28;46421;-56
2023/11/04 00:42:44;;;;;;;;;3.67;3.67;;;;;14.62;100.00;98360.03;2062841;28;46636;-57
2023/11/04 00:43:45;;;;;;;;;5.33;5.33;;;;;14.62;100.00;98350.22;2062161;28;46245;-57
2023/11/04 00:44:45;;;;;;;;;6.00;4.00;;;;;14.62;100.00;98358.22;2062265;28;46193;-55
2023/11/04 00:45:45;;;;;;;;;4.67;2.67;;;;;14.62;100.00;98350.22;2055349;28;46820;-57
2023/11/04 00:46:46;;;;;;;;;2.67;2.00;;;;;14.63;100.00;98354.56;2054815;28;46529;-53
2023/11/04 00:47:46;;;;;;;;;2.33;2.33;;;;;14.63;100.00;98362.59;2054784;28;45132;-57
2023/11/04 00:48:46;;;;;;;;;3.67;3.67;;;;;14.63;100.00;98356.41;2054362;28;46812;-56
2023/11/04 00:49:47;;;;;;;;;5.67;5.67;;;;;14.62;100.00;98349.34;2052745;28;46507;-56
2023/11/04 00:50:47;;;;;;;;;4.00;4.00;;;;;14.63;100.00;98359.91;2054851;28;45903;-55
2023/11/04 00:51:47;;;;;;;;;6.67;5.67;;;;;14.61;100.00;98355.63;2053750;28;46360;-56
2023/11/04 00:52:48;;;;;;;;;5.00;4.00;;;;;14.51;100.00;98365.31;2053734;28;46399;-59
2023/11/04 00:53:48;;;;;;;;;7.33;6.33;;;;;14.50;100.00;98356.47;2053354;28;46215;-58
2023/11/04 00:54:48;;;;;;;;;5.33;4.33;;;;;14.49;100.00;98351.25;2053762;28;47035;-58
2023/11/04 00:55:49;;;;;;;;;6.33;6.33;;;;;14.47;100.00;98353.16;2053619;28;46558;-56
2023/11/04 00:56:49;;;;;;;;;5.00;5.00;;;;;14.55;100.00;98353.44;2054145;28;46926;-56
2023/11/04 00:57:49;;;;;;;;;9.67;7.00;;;;;14.57;100.00;98352.34;2060960;28;46071;-58
2023/11/04 00:58:52;;;;;;;;;5.00;4.67;;;;;14.57;100.00;98354.19;2053775;28;46877;-57
2023/11/04 00:59:52;;;;;;;;;4.00;4.00;;;;;14.57;100.00;98343.50;2053212;28;46402;-55
2023/11/04 01:00:52;;;;;;;;;5.33;5.33;;;;;14.57;100.00;98340.84;2053773;28;46127;-58
2023/11/04 01:01:53;;;;;;;;;3.33;3.33;;;;;14.57;100.00;98343.50;2045634;28;46479;-59
2023/11/04 01:02:56;;;;;;;;;7.33;4.67;;;;;14.57;100.00;98338.16;2045582;28;46249;-58
2023/11/04 01:03:57;;;;;;;;;1.75;1.75;;;;;14.56;100.00;98341.78;2053563;28;46361;-58
2023/11/04 01:04:57;;;;;;;;;3.00;3.00;;;;;14.56;100.00;98336.47;2053915;28;46414;-57
2023/11/04 01:05:57;;;;;;;;;6.33;4.00;;;;;14.55;100.00;98334.75;2054470;28;46436;-56
2023/11/04 01:06:58;;;;;;;;;4.00;4.00;;;;;14.56;100.00;98331.97;2061759;28;46797;-53
2023/11/04 01:07:59;;;;;;;;;8.00;3.67;;;;;14.54;100.00;98328.56;2061675;28;46252;-58
2023/11/04 01:08:59;;;;;;;;;5.00;5.00;;;;;14.56;100.00;98331.13;2053549;28;46373;-57
2023/11/04 01:09:59;;;;;;;;;2.00;2.00;;;;;14.56;100.00;98333.78;2053669;28;45432;-56
2023/11/04 01:11:00;;;;;;;;;4.00;4.00;;;;;14.56;100.00;98325.78;2061513;28;46589;-58
2023/11/04 01:12:00;;;;;;;;;4.33;4.00;;;;;14.54;100.00;98327.72;2061917;28;46374;-57
2023/11/04 01:13:00;;;;;;;;;6.00;3.00;;;;;14.55;100.00;98332.94;2061550;28;46698;-59
2023/11/04 01:14:01;;;;;;;;;4.00;4.00;;;;;14.55;100.00;98327.59;2061851;28;46689;-57
2023/11/04 01:15:02;;;;;;;;;5.33;5.33;;;;;14.55;100.00;98329.44;2053480;28;46569;-58
2023/11/04 01:16:03;;;;;;;;;3.00;3.00;;;;;14.43;100.00;98324.00;2045337;28;45993;-58
2023/11/04 01:17:04;;;;;;;;;4.00;4.00;;;;;14.50;100.00;98328.94;2053602;28;46462;-60
2023/11/04 01:18:04;;;;;;;;;5.67;5.67;;;;;14.50;100.00;98321.78;2053740;28;46500;-56
2023/11/04 01:19:04;;;;;;;;;3.00;3.00;;;;;14.41;100.00;98322.44;2052979;28;46061;-57
2023/11/04 01:20:07;;;;;;;;;4.00;3.00;;;;;14.40;100.00;98318.06;2061902;28;46768;-58
2023/11/04 01:21:07;;;;;;;;;0.00;0.00;;;;;14.37;100.00;98319.16;2053313;28;46367;-57
2023/11/04 01:22:08;;;;;;;;;3.33;3.33;;;;;14.37;100.00;98327.16;2045305;28;46420;-56
2023/11/04 01:23:08;;;;;;;;;4.00;4.00;;;;;14.36;100.00;98325.47;2053163;28;46024;-58
2023/11/04 01:24:08;;;;;;;;;2.00;2.00;;;;;14.35;100.00;98320.22;2058728;28;46100;-55
2023/11/04 01:25:09;;;;;;;;;6.00;6.00;;;;;14.34;100.00;98327.38;2053800;28;46723;-53
2023/11/04 01:26:09;;;;;;;;;4.00;4.00;;;;;14.33;100.00;98316.81;2059902;28;45508;-58
2023/11/04 01:27:10;;;;;;;;;3.00;2.67;;;;;14.40;100.00;98318.06;2060739;28;46966;-57
2023/11/04 01:28:10;;;;;;;;;5.33;4.00;;;;;14.42;100.00;98321.47;2054429;28;46402;-55
2023/11/04 01:29:11;;;;;;;;;4.00;4.00;;;;;14.43;100.00;98321.34;2058908;28;45567;-57
2023/11/04 01:30:12;;;;;;;;;3.00;3.00;;;;;14.42;100.00;98319.66;2062048;28;46675;-57
2023/11/04 01:31:13;;;;;;;;;4.00;4.00;;;;;14.41;100.00;98317.94;2053914;28;46451;-57
2023/11/04 01:32:13;;;;;;;;;5.67;5.00;;;;;14.40;100.00;98315.41;2061942;28;46295;-57
2023/11/04 01:33:13;;;;;;;;;5.67;5.33;;;;;14.37;100.00;98307.63;2062336;28;46582;-56
2023/11/04 01:34:14;;;;;;;;;4.67;4.67;;;;;14.41;100.00;98303.75;2062763;28;45873;-58
2023/11/04 01:35:14;;;;;;;;;3.00;3.00;;;;;14.39;100.00;98301.19;2062581;28;46574;-57
2023/11/04 01:36:14;;;;;;;;;5.33;5.00;;;;;14.40;100.00;98299.38;2062308;28;46681;-58
2023/11/04 01:37:15;;;;;;;;;5.67;3.33;;;;;14.40;100.00;98300.25;2062388;28;46709;-52
2023/11/04 01:38:15;;;;;;;;;4.00;4.00;;;;;14.40;100.00;98304.72;2062742;28;46492;-57
2023/11/04 01:39:17;;;;;;;;;4.00;2.00;;;;;14.40;100.00;98302.06;2062127;28;45690;-55
2023/11/04 01:40:18;;;;;;;;;3.75;3.75;;;;;14.41;100.00;98298.41;2062840;28;47855;-55
2023/11/04 01:41:18;;;;;;;;;6.00;5.33;;;;;14.42;100.00;98306.31;2062193;28;45716;-57
2023/11/04 01:42:18;;;;;;;;;4.00;3.00;;;;;14.41;100.00;98296.59;2062576;28;46994;-57
2023/11/04 01:43:26;;;;;;;;;6.67;5.00;;;;;14.40;100.00;98294.91;2062596;28;46255;-55
2023/11/04 01:44:26;;;;;;;;;3.00;3.00;;;;;14.39;100.00;98301.19;2062568;28;46813;-58
2023/11/04 01:45:27;;;;;;;;;2.00;2.00;;;;;14.38;100.00;98302.19;2062331;28;46629;-58
2023/11/04 01:46:27;;;;;;;;;3.67;3.00;;;;;14.36;100.00;98298.78;2061853;28;46299;-54
2023/11/04 01:47:28;;;;;;;;;3.00;3.00;;;;;14.39;100.00;98303.03;2053833;28;46322;-58
2023/11/04 01:48:28;;;;;;;;;6.00;3.67;;;;;14.37;100.00;98292.47;2062085;28;46865;-58
2023/11/04 01:49:29;;;;;;;;;4.33;3.33;;;;;14.38;100.00;98294.16;2062050;28;46432;-57
2023/11/04 01:50:29;;;;;;;;;2.00;2.00;;;;;14.37;100.00;98295.13;2062529;28;46815;-59
2023/11/04 01:51:30;;;;;;;;;3.67;2.00;;;;;14.38;100.00;98301.31;2062405;28;46587;-55
2023/11/04 01:52:31;;;;;;;;;5.00;4.00;;;;;14.37;100.00;98292.47;2061627;28;46488;-57
2023/11/04 01:53:33;;;;;;;;;4.75;3.75;;;;;14.38;100.00;98288.84;2061832;28;46409;-55
2023/11/04 01:54:34;;;;;;;;;4.25;4.25;;;;;14.37;100.00;98287.13;2062061;28;46553;-58
2023/11/04 01:55:36;;;;;;;;;4.00;3.00;;;;;14.38;100.00;98285.31;2054325;28;47025;-59
2023/11/04 01:56:39;;;;;;;;;2.75;2.75;;;;;14.39;100.00;98279.00;2054368;28;45379;-55
2023/11/04 01:57:40;;;;;;;;;5.50;4.25;;;;;14.37;100.00;98273.78;2062064;28;46677;-54
2023/11/04 01:58:45;;;;;;;;;4.67;4.67;;;;;14.37;100.00;98279.13;2062239;28;46257;-57
2023/11/04 01:59:45;;;;;;;;;5.50;3.50;;;;;14.37;100.00;98281.81;2062191;28;46726;-60
2023/11/04 02:00:46;;;;;;;;;5.00;3.00;;;;;14.37;100.00;98280.94;2062914;28;46270;-58
2023/11/04 02:01:48;;;;;;;;;4.50;3.75;;;;;14.37;100.00;98283.63;2063522;28;46835;-57
2023/11/04 02:02:49;;;;;;;;;3.00;3.00;;;;;14.32;100.00;98280.44;2063602;28;45649;-55
2023/11/04 02:03:51;;;;;;;;;3.75;3.75;;;;;14.32;100.00;98278.59;2063630;28;46540;-60
2023/11/04 02:04:52;;;;;;;;;4.00;3.00;;;;;14.32;100.00;98283.09;2063161;28;46998;-57
2023/11/04 02:05:52;;;;;;;;;4.00;4.00;;;;;14.31;100.00;98276.06;2063633;28;46514;-56
2023/11/04 02:06:52;;;;;;;;;2.00;2.00;;;;;14.30;100.00;98282.38;2062652;28;46773;-57
2023/11/04 02:07:53;;;;;;;;;4.00;4.00;;;;;14.31;100.00;98278.72;2063418;28;46447;-56
2023/11/04 02:08:55;;;;;;;;;5.00;4.00;;;;;14.30;100.00;98277.03;2063637;28;46181;-60
2023/11/04 02:09:55;;;;;;;;;2.25;2.25;;;;;14.28;100.00;98282.47;2063634;28;46349;-58
2023/11/04 02:10:56;;;;;;;;;5.00;5.00;;;;;14.28;100.00;98284.31;2063640;28;46258;-55
2023/11/04 02:11:56;;;;;;;;;3.00;3.00;;;;;14.28;100.00;98282.47;2063668;28;46867;-55
2023/11/04 02:12:57;;;;;;;;;2.67;2.67;;;;;14.28;100.00;98278.97;2063666;28;46309;-58
2023/11/04 02:13:57;;;;;;;;;3.00;3.00;;;;;14.27;100.00;98282.59;2063167;28;46192;-54
2023/11/04 02:14:57;;;;;;;;;5.33;4.00;;;;;14.27;100.00;98274.59;2062636;28;46241;-57
2023/11/04 02:15:58;;;;;;;;;3.00;3.00;;;;;14.28;100.00;98281.63;2063019;28;46985;-59
2023/11/04 02:16:58;;;;;;;;;4.67;4.00;;;;;14.27;100.00;98275.44;2062634;28;46521;-57
2023/11/04 02:17:58;;;;;;;;;4.00;4.00;;;;;14.28;100.00;98269.16;2063774;28;45871;-55
2023/11/04 02:18:59;;;;;;;;;5.00;4.00;;;;;14.27;100.00;98272.78;2063437;28;46718;-55
2023/11/04 02:20:04;;;;;;;;;5.33;3.33;;;;;14.28;100.00;98265.63;2063218;28;46224;-53
2023/11/04 02:21:05;;;;;;;;;4.75;3.75;;;;;14.27;100.00;98266.59;2063476;28;46459;-55
2023/11/04 02:22:05;;;;;;;;;3.67;3.00;;;;;14.27;100.00;98253.25;2062336;28;46587;-57
2023/11/04 02:23:06;;;;;;;;;4.00;4.00;;;;;14.29;100.00;98254.00;2059128;28;46411;-57
2023/11/04 02:24:06;;;;;;;;;4.33;4.33;;;;;14.28;100.00;98250.47;2056982;28;46305;-57
2023/11/04 02:25:07;;;;;;;;;4.00;4.00;;;;;14.27;100.00;98232.78;2063380;28;46790;-56
2023/11/04 02:26:07;;;;;;;;;3.00;3.00;;;;;14.28;100.00;98229.13;2063315;28;46619;-55
2023/11/04 02:27:07;;;;;;;;;5.33;4.33;;;;;14.27;100.00;98218.59;2063591;28;46639;-55
2023/11/04 02:28:08;;;;;;;;;2.67;2.67;;;;;14.27;100.00;98222.09;2063646;28;46275;-55
2023/11/04 02:29:08;;;;;;;;;3.00;3.00;;;;;14.25;100.00;98221.38;2063217;28;46743;-59
2023/11/04 02:30:11;;;;;;;;;3.00;3.00;;;;;14.26;100.00;98219.56;2063534;28;46545;-56
2023/11/04 02:31:11;;;;;;;;;4.00;2.25;;;;;14.24;100.00;98217.00;2063453;28;46899;-59
2023/11/04 02:32:11;;;;;;;;;2.67;2.67;;;;;14.23;100.00;98217.97;2063452;28;46460;-60
2023/11/04 02:33:12;;;;;;;;;3.67;3.67;;;;;14.24;100.00;98209.00;2062904;28;46566;-57
2023/11/04 02:34:12;;;;;;;;;4.33;3.67;;;;;14.24;100.00;98211.66;2062963;28;46196;-59
2023/11/04 02:35:15;;;;;;;;;4.00;4.00;;;;;14.24;100.00;98216.16;2055214;28;46462;-60
2023/11/04 02:36:15;;;;;;;;;4.00;3.25;;;;;14.24;100.00;98206.34;2055165;28;46504;-55
2023/11/04 02:37:16;;;;;;;;;4.00;4.00;;;;;14.22;100.00;98200.25;2054938;28;45576;-59
2023/11/04 02:38:16;;;;;;;;;3.00;3.00;;;;;14.13;100.00;98201.81;2055307;28;46296;-56
2023/11/04 02:39:18;;;;;;;;;4.00;4.00;;;;;14.11;100.00;98198.41;2057132;28;46835;-60
2023/11/04 02:40:20;;;;;;;;;6.25;5.00;;;;;14.11;100.00;98197.56;2063574;28;45661;-57
2023/11/04 02:41:20;;;;;;;;;23.20;20.40;;;;;14.10;100.00;98195.84;2063748;28;46508;-58
2023/11/04 02:42:20;;;;;;;;;37.25;33.50;;;;;14.09;100.00;98183.47;2062834;28;46867;-58
2023/11/04 02:43:21;;;;;;;;;55.25;45.50;;;;;14.23;100.00;98188.63;2062833;28;46407;-56
2023/11/04 02:44:21;;;;;;;;;39.75;34.50;;;;;14.24;100.00;98182.31;2063017;28;46265;-57
2023/11/04 02:45:21;;;;;;;;;37.50;34.50;;;;;14.25;100.00;98181.34;2062421;28;46986;-54
2023/11/04 02:46:22;;;;;;;;;34.00;29.50;;;;;14.23;100.00;98183.28;2062898;28;46883;-55
2023/11/04 02:47:23;;;;;;;;;20.25;19.00;;;;;14.24;100.00;98174.31;2063264;28;46186;-57
2023/11/04 02:48:24;;;;;;;;;7.00;6.67;;;;;14.26;100.00;98172.38;2062358;28;46426;-55
2023/11/04 02:49:24;;;;;;;;;4.25;4.25;;;;;14.25;100.00;98168.03;2070700;28;46598;-58
2023/11/04 02:50:25;;;;;;;;;5.33;5.33;;;;;14.24;100.00;98170.81;2070840;28;46199;-55
2023/11/04 02:51:25;;;;;;;;;18.75;16.50;;;;;14.21;100.00;98169.19;2056202;28;46283;-60
2023/11/04 02:52:26;;;;;;;;;12.67;10.33;;;;;14.23;100.00;98171.75;2063282;28;46866;-54
2023/11/04 02:53:29;;;;;;;;;10.67;9.00;;;;;14.24;100.00;98168.13;2063757;28;46521;-58
2023/11/04 02:54:29;;;;;;;;;7.60;7.60;;;;;14.24;100.00;98166.31;2063338;28;46729;-56
2023/11/04 02:55:30;;;;;;;;;4.33;3.67;;;;;14.23;100.00;98156.63;2063196;28;46764;-57
2023/11/04 02:56:30;;;;;;;;;3.00;3.00;;;;;14.22;100.00;98156.72;2063339;28;46767;-54
2023/11/04 02:57:30;;;;;;;;;3.33;3.33;;;;;14.19;100.00;98156.97;2063451;28;46486;-58
2023/11/04 02:58:30;;;;;;;;;5.00;5.00;;;;;14.16;100.00;98152.72;2062822;28;46303;-58
2023/11/04 02:59:31;;;;;;;;;4.67;4.33;;;;;14.14;100.00;98152.84;2063548;28;46826;-60
2023/11/04 03:00:31;;;;;;;;;1.67;1.67;;;;;14.12;100.00;98151.25;2063367;28;46282;-57
2023/11/04 03:01:32;;;;;;;;;5.00;4.00;;;;;14.10;100.00;98154.06;2062980;28;46279;-57
2023/11/04 03:02:32;;;;;;;;;3.00;3.00;;;;;14.09;100.00;98152.31;2063574;28;46783;-56
2023/11/04 03:03:32;;;;;;;;;3.00;3.00;;;;;13.96;100.00;98143.56;2063425;28;46641;-58
2023/11/04 03:04:34;;;;;;;;;3.00;3.00;;;;;13.93;100.00;98143.81;2063370;28;46050;-59
2023/11/04 03:05:34;;;;;;;;;4.00;4.00;;;;;13.91;100.00;98134.22;2063551;28;46295;-55
2023/11/04 03:06:35;;;;;;;;;3.00;3.00;;;;;13.90;100.00;98137.88;2063766;28;46199;-57
2023/11/04 03:07:35;;;;;;;;;2.33;2.33;;;;;13.89;100.00;98133.50;2063043;28;46759;-57
2023/11/04 03:08:35;;;;;;;;;4.00;4.00;;;;;13.87;100.00;98133.63;2063136;28;46230;-58
2023/11/04 03:09:36;;;;;;;;;3.00;3.00;;;;;13.98;100.00;98132.81;2063216;28;46728;-58
2023/11/04 03:10:36;;;;;;;;;4.00;4.00;;;;;14.01;100.00;98135.22;2063436;28;46275;-58
2023/11/04 03:11:36;;;;;;;;;5.67;2.67;;;;;14.00;100.00;98118.38;2063033;28;46280;-57
2023/11/04 03:12:37;;;;;;;;;3.67;3.33;;;;;14.01;100.00;98119.22;2062206;28;46449;-58
2023/11/04 03:13:40;;;;;;;;;3.00;3.00;;;;;14.01;100.00;98114.75;2063171;28;46537;-57
2023/11/04 03:14:45;;;;;;;;;5.75;4.00;;;;;14.00;100.00;98120.19;2063251;28;46615;-57
2023/11/04 03:15:46;;;;;;;;;1.00;0.75;;;;;13.99;100.00;98105.19;2063400;28;46104;-56
2023/11/04 03:16:46;;;;;;;;;4.33;3.00;;;;;13.88;100.00;98108.66;2055831;28;46173;-57
2023/11/04 03:17:47;;;;;;;;;2.00;2.00;;;;;13.83;100.00;98110.81;2055130;28;46292;-56
2023/11/04 03:18:47;;;;;;;;;4.00;4.00;;;;;13.79;100.00;98104.03;2055474;28;46324;-57
2023/11/04 03:19:48;;;;;;;;;5.33;4.67;;;;;13.75;100.00;98105.22;2054958;28;46267;-58
2023/11/04 03:20:48;;;;;;;;;4.33;3.00;;;;;13.73;100.00;98109.84;2054952;28;46240;-57
2023/11/04 03:21:49;;;;;;;;;5.00;5.00;;;;;13.71;100.00;98106.41;2054784;28;47102;-58
2023/11/04 03:22:49;;;;;;;;;6.00;5.00;;;;;13.82;100.00;98101.13;2055078;28;46586;-53
2023/11/04 03:23:49;;;;;;;;;3.67;2.00;;;;;13.86;100.00;98099.94;2054943;28;46581;-57
2023/11/04 03:24:49;;;;;;;;;4.00;2.00;;;;;13.84;100.00;98094.69;2061751;28;46290;-58
2023/11/04 03:25:50;;;;;;;;;4.00;3.00;;;;;13.82;100.00;98093.97;2062475;28;47124;-54
2023/11/04 03:26:51;;;;;;;;;3.00;3.00;;;;;13.80;100.00;98097.72;2063255;28;46623;-53
2023/11/04 03:27:52;;;;;;;;;2.75;2.75;;;;;13.79;100.00;98101.34;2063175;28;46567;-55
2023/11/04 03:28:53;;;;;;;;;2.00;2.00;;;;;13.75;100.00;98090.09;2063462;28;46476;-56
2023/11/04 03:29:53;;;;;;;;;3.33;3.33;;;;;13.76;100.00;98094.44;2062806;28;46255;-56
2023/11/04 03:30:53;;;;;;;;;3.00;3.00;;;;;13.77;100.00;98088.16;2062578;28;46577;-52
2023/11/04 03:31:54;;;;;;;;;4.67;4.00;;;;;13.77;100.00;98090.81;2062571;28;46289;-58
2023/11/04 03:32:54;;;;;;;;;4.00;2.67;;;;;13.79;100.00;98080.88;2063034;28;46804;-55
2023/11/04 03:33:54;;;;;;;;;4.00;2.67;;;;;13.78;100.00;98079.19;2062066;28;46537;-57
2023/11/04 03:34:55;;;;;;;;;3.33;3.00;;;;;13.79;100.00;98082.69;2055411;28;45600;-58
2023/11/04 03:35:55;;;;;;;;;4.00;2.67;;;;;13.77;100.00;98071.31;2070384;28;45747;-57
2023/11/04 03:36:56;;;;;;;;;2.67;2.00;;;;;13.77;100.00;98071.31;2070772;28;46849;-55
2023/11/04 03:37:56;;;;;;;;;4.00;4.00;;;;;13.77;100.00;98068.66;2053384;28;46831;-56
2023/11/04 03:38:56;;;;;;;;;3.00;3.00;;;;;13.77;100.00;98071.31;2053951;28;46313;-56
2023/11/04 03:39:58;;;;;;;;;2.67;2.67;;;;;13.76;100.00;98072.28;2063191;28;46109;-58
2023/11/04 03:40:58;;;;;;;;;3.00;3.00;;;;;13.77;100.00;98066.81;2063144;28;45996;-57
2023/11/04 03:41:59;;;;;;;;;2.00;2.00;;;;;13.78;100.00;98063.19;2063078;28;46786;-60
2023/11/04 03:42:59;;;;;;;;;4.25;3.00;;;;;13.79;100.00;98061.38;2063324;28;45554;-59
2023/11/04 03:43:59;;;;;;;;;6.33;4.33;;;;;13.78;100.00;98054.34;2062903;28;46317;-58
2023/11/04 03:45:00;;;;;;;;;3.67;3.33;;;;;13.77;100.00;98056.16;2063267;28;46719;-54
2023/11/04 03:46:00;;;;;;;;;2.33;2.00;;;;;13.77;100.00;98052.66;2062938;28;46772;-55
2023/11/04 03:47:00;;;;;;;;;2.00;2.00;;;;;13.77;100.00;98058.84;2062643;28;46357;-59
2023/11/04 03:48:01;;;;;;;;;4.00;4.00;;;;;13.77;100.00;98053.50;2063252;28;46498;-58
2023/11/04 03:49:01;;;;;;;;;5.67;4.00;;;;;13.77;100.00;98050.84;2063076;28;46402;-57
2023/11/04 03:50:02;;;;;;;;;2.00;2.00;;;;;13.78;100.00;98039.19;2062881;28;46869;-59
2023/11/04 03:51:04;;;;;;;;;2.75;2.75;;;;;13.74;100.00;98043.09;2063029;28;46499;-58
2023/11/04 03:52:07;;;;;;;;;3.50;3.25;;;;;13.75;100.00;98033.28;2056624;28;46883;-57
2023/11/04 03:53:07;;;;;;;;;6.00;3.00;;;;;13.75;100.00;98033.28;2104655;28;45781;-54
2023/11/04 03:54:08;;;;;;;;;3.00;3.00;;;;;13.77;100.00;98032.19;2103250;28;46241;-58
2023/11/04 03:55:08;;;;;;;;;1.00;1.00;;;;;13.78;100.00;98035.69;2055190;28;46488;-57
2023/11/04 03:56:08;;;;;;;;;2.33;2.00;;;;;13.79;100.00;98046.22;2055003;28;46535;-58
2023/11/04 03:57:09;;;;;;;;;3.00;2.67;;;;;13.81;100.00;98038.09;2058328;28;46848;-58
2023/11/04 03:58:09;;;;;;;;;2.67;2.67;;;;;13.82;100.00;98034.47;2063192;28;46406;-57
2023/11/04 03:59:09;;;;;;;;;4.00;2.67;;;;;13.82;100.00;98035.31;2062912;28;46234;-57
2023/11/04 04:00:10;;;;;;;;;2.67;2.33;;;;;13.83;100.00;98031.69;2062706;28;46600;-59
2023/11/04 04:01:10;;;;;;;;;3.33;3.33;;;;;13.83;100.00;98030.84;2063024;28;46551;-58
2023/11/04 04:02:11;;;;;;;;;1.00;1.00;;;;;13.81;100.00;98025.63;2062870;28;46615;-55
2023/11/04 04:03:11;;;;;;;;;4.67;2.33;;;;;13.81;100.00;98028.28;2058287;28;46199;-56
2023/11/04 04:04:12;;;;;;;;;3.67;2.67;;;;;13.80;100.00;98021.28;2055069;28;46192;-58
2023/11/04 04:05:12;;;;;;;;;4.00;3.00;;;;;13.79;100.00;98022.25;2054846;28;46067;-56
2023/11/04 04:06:15;;;;;;;;;4.67;3.00;;;;;13.79;100.00;98018.72;2054902;28;46422;-57
2023/11/04 04:07:16;;;;;;;;;4.75;2.50;;;;;13.80;100.00;98013.28;2055048;28;46409;-56
2023/11/04 04:08:16;;;;;;;;;4.67;3.00;;;;;13.80;100.00;98009.75;2054769;28;46454;-58
2023/11/04 04:09:17;;;;;;;;;3.33;3.00;;;;;13.80;100.00;97999.94;2055899;28;46245;-53
2023/11/04 04:10:17;;;;;;;;;3.33;3.33;;;;;13.82;100.00;98003.34;2063346;28;46858;-55
2023/11/04 04:11:22;;;;;;;;;5.00;3.00;;;;;13.80;100.00;97991.94;2062419;28;46785;-61
2023/11/04 04:12:23;;;;;;;;;4.00;4.00;;;;;13.71;100.00;97995.31;2063504;28;45751;-59
2023/11/04 04:13:23;;;;;;;;;5.00;3.67;;;;;13.69;100.00;97993.75;2062817;28;46167;-57
2023/11/04 04:14:23;;;;;;;;;5.00;5.00;;;;;13.77;100.00;97988.69;2062766;28;45969;-59
2023/11/04 04:15:23;;;;;;;;;3.00;3.00;;;;;13.80;100.00;97980.44;2063114;28;46752;-57
2023/11/04 04:16:24;;;;;;;;;7.00;5.67;;;;;13.79;100.00;97976.94;2062803;28;46271;-53
2023/11/04 04:17:24;;;;;;;;;4.00;4.00;;;;;13.78;100.00;97980.56;2063428;28;44957;-58
2023/11/04 04:18:24;;;;;;;;;5.00;4.33;;;;;13.81;100.00;97972.31;2062668;28;46595;-58
2023/11/04 04:19:25;;;;;;;;;5.00;3.67;;;;;13.82;100.00;97968.69;2062859;28;46575;-56
2023/11/04 04:20:27;;;;;;;;;4.00;4.00;;;;;13.84;100.00;97960.56;2062938;28;46495;-55
2023/11/04 04:21:27;;;;;;;;;3.25;3.25;;;;;13.85;100.00;97956.94;2095498;28;46243;-58
2023/11/04 04:22:27;;;;;;;;;4.33;4.00;;;;;13.87;100.00;97951.50;2095447;28;46592;-57
2023/11/04 04:23:28;;;;;;;;;6.00;4.67;;;;;13.88;100.00;97948.72;2062618;28;45260;-59
2023/11/04 04:24:28;;;;;;;;;3.00;3.00;;;;;13.83;100.00;97938.38;2062771;28;46598;-56
2023/11/04 04:25:28;;;;;;;;;3.67;2.67;;;;;13.84;100.00;97933.91;2062740;28;46407;-59
2023/11/04 04:26:29;;;;;;;;;3.00;3.00;;;;;13.83;100.00;97938.38;2062801;28;46550;-59
2023/11/04 04:27:30;;;;;;;;;4.00;3.00;;;;;13.84;100.00;97928.56;2062987;28;46245;-57
2023/11/04 04:28:30;;;;;;;;;4.00;4.00;;;;;13.85;100.00;97924.97;2062388;28;46587;-55
2023/11/04 04:29:31;;;;;;;;;4.00;4.00;;;;;13.87;100.00;97914.19;2062916;28;46226;-58
2023/11/04 04:30:31;;;;;;;;;4.00;4.00;;;;;13.86;100.00;97915.16;2103795;28;46636;-58
2023/11/04 04:31:32;;;;;;;;;3.00;3.00;;;;;13.87;100.00;97922.19;2103898;28;46533;-56
2023/11/04 04:32:32;;;;;;;;;3.00;2.00;;;;;13.88;100.00;97918.53;2058130;28;46096;-57
2023/11/04 04:33:32;;;;;;;;;3.33;2.33;;;;;13.88;100.00;97906.06;2054988;28;46408;-59
2023/11/04 04:34:33;;;;;;;;;6.00;5.00;;;;;13.88;100.00;97902.53;2054772;28;46487;-54
2023/11/04 04:35:34;;;;;;;;;4.67;4.00;;;;;13.90;100.00;97898.78;2057591;28;46028;-55
2023/11/04 04:36:35;;;;;;;;;3.75;3.00;;;;;13.91;100.00;97897.81;2062940;28;46980;-59
2023/11/04 04:37:35;;;;;;;;;4.00;4.00;;;;;13.90;100.00;97896.09;2062851;28;46582;-59
2023/11/04 04:38:37;;;;;;;;;5.00;2.00;;;;;13.92;100.00;97896.81;2062422;28;46432;-55
2023/11/04 04:39:37;;;;;;;;;4.75;3.50;;;;;13.92;100.00;97882.66;2063074;28;47102;-59
2023/11/04 04:40:37;;;;;;;;;3.00;2.00;;;;;13.94;100.00;97886.88;2062261;28;46273;-58
2023/11/04 04:41:38;;;;;;;;;4.00;3.00;;;;;13.94;100.00;97889.56;2062274;28;46348;-59